sensor_id;sensor_type;location;lat;lon;timestamp;P1;durP1;ratioP1;P2;durP2;ratioP2
53253;SDS011;39148;53.332;6.922;2022-09-30T00:00:46;3.00;;;1.33;;
53253;SDS011;39148;53.332;6.922;2022-09-30T00:03:12;4.00;;;1.25;;
53253;SDS011;39148;53.332;6.922;2022-09-30T00:05:38;4.03;;;1.38;;
53253;SDS011;39148;53.332;6.922;2022-09-30T00:08:03;3.70;;;1.30;;
53253;SDS011;39148;53.332;6.922;2022-09-30T00:10:29;4.32;;;1.67;;
53253;SDS011;39148;53.332;6.922;2022-09-30T00:12:55;3.50;;;1.40;;
53253;SDS011;39148;53.332;6.922;2022-09-30T00:15:22;3.03;;;1.17;;
53253;SDS011;39148;53.332;6.922;2022-09-30T00:17:48;2.75;;;1.27;;
53253;SDS011;39148;53.332;6.922;2022-09-30T00:20:13;3.25;;;1.33;;
53253;SDS011;39148;53.332;6.922;2022-09-30T00:22:39;3.15;;;1.50;;
53253;SDS011;39148;53.332;6.922;2022-09-30T00:25:05;2.83;;;1.40;;
53253;SDS011;39148;53.332;6.922;2022-09-30T00:27:31;2.15;;;1.08;;
53253;SDS011;39148;53.332;6.922;2022-09-30T00:29:57;2.72;;;1.15;;
53253;SDS011;39148;53.332;6.922;2022-09-30T00:32:22;4.40;;;1.70;;
53253;SDS011;39148;53.332;6.922;2022-09-30T00:34:48;2.30;;;1.20;;
53253;SDS011;39148;53.332;6.922;2022-09-30T00:37:14;2.33;;;1.17;;
53253;SDS011;39148;53.332;6.922;2022-09-30T00:39:40;4.65;;;1.40;;
53253;SDS011;39148;53.332;6.922;2022-09-30T00:42:09;2.58;;;1.20;;
53253;SDS011;39148;53.332;6.922;2022-09-30T00:44:45;4.63;;;1.40;;
53253;SDS011;39148;53.332;6.922;2022-09-30T00:47:23;2.50;;;1.20;;
53253;SDS011;39148;53.332;6.922;2022-09-30T00:50:21;3.20;;;1.25;;
53253;SDS011;39148;53.332;6.922;2022-09-30T00:53:14;2.78;;;1.20;;
53253;SDS011;39148;53.332;6.922;2022-09-30T00:58:29;3.30;;;1.20;;
53253;SDS011;39148;53.332;6.922;2022-09-30T01:00:59;2.92;;;1.17;;
53253;SDS011;39148;53.332;6.922;2022-09-30T01:03:28;3.17;;;1.25;;
53253;SDS011;39148;53.332;6.922;2022-09-30T01:05:55;3.28;;;1.40;;
53253;SDS011;39148;53.332;6.922;2022-09-30T01:08:21;4.35;;;1.35;;
53253;SDS011;39148;53.332;6.922;2022-09-30T01:10:48;4.20;;;1.30;;
53253;SDS011;39148;53.332;6.922;2022-09-30T01:13:14;2.75;;;1.30;;
53253;SDS011;39148;53.332;6.922;2022-09-30T01:21:32;3.53;;;1.35;;
53253;SDS011;39148;53.332;6.922;2022-09-30T01:29:47;3.28;;;1.33;;
53253;SDS011;39148;53.332;6.922;2022-09-30T01:35:38;3.25;;;1.23;;
53253;SDS011;39148;53.332;6.922;2022-09-30T01:41:07;3.25;;;1.40;;
53253;SDS011;39148;53.332;6.922;2022-09-30T01:44:02;2.42;;;1.10;;
53253;SDS011;39148;53.332;6.922;2022-09-30T01:46:37;1.98;;;1.08;;
53253;SDS011;39148;53.332;6.922;2022-09-30T01:57:30;2.70;;;1.10;;
53253;SDS011;39148;53.332;6.922;2022-09-30T02:05:31;2.20;;;1.00;;
53253;SDS011;39148;53.332;6.922;2022-09-30T02:08:13;2.10;;;1.10;;
53253;SDS011;39148;53.332;6.922;2022-09-30T02:10:49;2.50;;;1.13;;
53253;SDS011;39148;53.332;6.922;2022-09-30T02:16:20;2.88;;;1.20;;
53253;SDS011;39148;53.332;6.922;2022-09-30T02:21:59;3.03;;;1.30;;
53253;SDS011;39148;53.332;6.922;2022-09-30T02:24:36;4.20;;;1.13;;
53253;SDS011;39148;53.332;6.922;2022-09-30T02:27:04;3.05;;;1.40;;
53253;SDS011;39148;53.332;6.922;2022-09-30T02:29:35;2.17;;;1.02;;
53253;SDS011;39148;53.332;6.922;2022-09-30T02:32:52;2.95;;;1.30;;
53253;SDS011;39148;53.332;6.922;2022-09-30T02:35:13;2.45;;;1.20;;
53253;SDS011;39148;53.332;6.922;2022-09-30T02:37:45;2.93;;;1.13;;
53253;SDS011;39148;53.332;6.922;2022-09-30T02:42:50;2.75;;;1.10;;
53253;SDS011;39148;53.332;6.922;2022-09-30T02:45:17;3.53;;;1.20;;
53253;SDS011;39148;53.332;6.922;2022-09-30T02:47:48;2.30;;;1.10;;
53253;SDS011;39148;53.332;6.922;2022-09-30T02:53:24;3.50;;;1.83;;
53253;SDS011;39148;53.332;6.922;2022-09-30T02:58:40;2.45;;;1.10;;
53253;SDS011;39148;53.332;6.922;2022-09-30T03:01:14;1.95;;;1.23;;
53253;SDS011;39148;53.332;6.922;2022-09-30T03:03:42;2.15;;;1.10;;
53253;SDS011;39148;53.332;6.922;2022-09-30T03:06:08;2.92;;;1.33;;
53253;SDS011;39148;53.332;6.922;2022-09-30T03:08:35;3.58;;;1.30;;
53253;SDS011;39148;53.332;6.922;2022-09-30T03:11:00;2.20;;;1.10;;
53253;SDS011;39148;53.332;6.922;2022-09-30T03:13:34;2.65;;;1.13;;
53253;SDS011;39148;53.332;6.922;2022-09-30T03:19:51;2.05;;;1.00;;
53253;SDS011;39148;53.332;6.922;2022-09-30T03:27:47;3.38;;;1.50;;
53253;SDS011;39148;53.332;6.922;2022-09-30T03:30:24;2.83;;;1.15;;
53253;SDS011;39148;53.332;6.922;2022-09-30T03:33:01;2.55;;;1.20;;
53253;SDS011;39148;53.332;6.922;2022-09-30T03:48:34;3.80;;;1.30;;
53253;SDS011;39148;53.332;6.922;2022-09-30T03:51:02;2.42;;;1.20;;
53253;SDS011;39148;53.332;6.922;2022-09-30T03:53:29;3.88;;;1.27;;
53253;SDS011;39148;53.332;6.922;2022-09-30T03:55:55;3.15;;;1.27;;
53253;SDS011;39148;53.332;6.922;2022-09-30T03:58:21;2.53;;;1.10;;
53253;SDS011;39148;53.332;6.922;2022-09-30T04:00:51;2.70;;;1.20;;
53253;SDS011;39148;53.332;6.922;2022-09-30T04:03:19;2.33;;;1.10;;
53253;SDS011;39148;53.332;6.922;2022-09-30T04:05:46;2.25;;;1.00;;
53253;SDS011;39148;53.332;6.922;2022-09-30T04:08:12;3.70;;;1.17;;
53253;SDS011;39148;53.332;6.922;2022-09-30T04:10:39;2.17;;;1.02;;
53253;SDS011;39148;53.332;6.922;2022-09-30T04:13:06;2.15;;;1.10;;
53253;SDS011;39148;53.332;6.922;2022-09-30T04:15:32;1.98;;;1.10;;
53253;SDS011;39148;53.332;6.922;2022-09-30T04:17:58;2.55;;;1.10;;
53253;SDS011;39148;53.332;6.922;2022-09-30T04:20:24;2.33;;;1.15;;
53253;SDS011;39148;53.332;6.922;2022-09-30T04:22:51;2.28;;;1.00;;
53253;SDS011;39148;53.332;6.922;2022-09-30T04:25:16;1.83;;;0.90;;
53253;SDS011;39148;53.332;6.922;2022-09-30T04:27:42;2.00;;;0.90;;
53253;SDS011;39148;53.332;6.922;2022-09-30T04:30:08;2.05;;;0.95;;
53253;SDS011;39148;53.332;6.922;2022-09-30T04:32:34;3.00;;;0.90;;
53253;SDS011;39148;53.332;6.922;2022-09-30T04:34:59;1.80;;;0.90;;
53253;SDS011;39148;53.332;6.922;2022-09-30T04:37:25;1.23;;;0.70;;
53253;SDS011;39148;53.332;6.922;2022-09-30T04:39:51;1.77;;;0.90;;
53253;SDS011;39148;53.332;6.922;2022-09-30T04:42:17;1.77;;;0.93;;
53253;SDS011;39148;53.332;6.922;2022-09-30T04:44:43;2.08;;;1.17;;
53253;SDS011;39148;53.332;6.922;2022-09-30T04:47:09;1.80;;;0.93;;
53253;SDS011;39148;53.332;6.922;2022-09-30T04:49:34;2.30;;;1.00;;
53253;SDS011;39148;53.332;6.922;2022-09-30T04:52:00;2.25;;;1.10;;
53253;SDS011;39148;53.332;6.922;2022-09-30T04:54:26;2.03;;;1.15;;
53253;SDS011;39148;53.332;6.922;2022-09-30T04:56:51;1.80;;;1.08;;
53253;SDS011;39148;53.332;6.922;2022-09-30T04:59:17;1.63;;;0.90;;
53253;SDS011;39148;53.332;6.922;2022-09-30T05:01:43;1.83;;;0.90;;
53253;SDS011;39148;53.332;6.922;2022-09-30T05:04:09;1.80;;;0.98;;
53253;SDS011;39148;53.332;6.922;2022-09-30T05:06:40;2.35;;;1.08;;
53253;SDS011;39148;53.332;6.922;2022-09-30T05:09:06;1.92;;;1.00;;
53253;SDS011;39148;53.332;6.922;2022-09-30T05:11:31;1.65;;;0.95;;
53253;SDS011;39148;53.332;6.922;2022-09-30T05:13:57;1.70;;;0.98;;
53253;SDS011;39148;53.332;6.922;2022-09-30T05:16:23;1.52;;;0.80;;
53253;SDS011;39148;53.332;6.922;2022-09-30T05:18:51;1.83;;;1.05;;
53253;SDS011;39148;53.332;6.922;2022-09-30T05:21:18;2.25;;;0.93;;
53253;SDS011;39148;53.332;6.922;2022-09-30T05:23:44;2.38;;;1.15;;
53253;SDS011;39148;53.332;6.922;2022-09-30T05:26:11;2.15;;;1.08;;
53253;SDS011;39148;53.332;6.922;2022-09-30T05:28:37;2.30;;;1.10;;
53253;SDS011;39148;53.332;6.922;2022-09-30T05:31:03;2.95;;;1.20;;
53253;SDS011;39148;53.332;6.922;2022-09-30T05:33:30;2.13;;;0.98;;
53253;SDS011;39148;53.332;6.922;2022-09-30T05:36:00;1.98;;;0.95;;
53253;SDS011;39148;53.332;6.922;2022-09-30T05:38:27;2.25;;;1.10;;
53253;SDS011;39148;53.332;6.922;2022-09-30T05:40:53;1.95;;;1.08;;
53253;SDS011;39148;53.332;6.922;2022-09-30T05:43:19;1.90;;;1.10;;
53253;SDS011;39148;53.332;6.922;2022-09-30T05:45:55;2.10;;;1.13;;
53253;SDS011;39148;53.332;6.922;2022-09-30T05:48:21;2.63;;;1.23;;
53253;SDS011;39148;53.332;6.922;2022-09-30T05:50:47;2.47;;;1.23;;
53253;SDS011;39148;53.332;6.922;2022-09-30T05:53:15;1.90;;;1.15;;
53253;SDS011;39148;53.332;6.922;2022-09-30T05:55:44;1.77;;;1.08;;
53253;SDS011;39148;53.332;6.922;2022-09-30T05:58:11;3.50;;;1.30;;
53253;SDS011;39148;53.332;6.922;2022-09-30T06:00:41;2.42;;;1.08;;
53253;SDS011;39148;53.332;6.922;2022-09-30T06:03:07;2.83;;;1.33;;
53253;SDS011;39148;53.332;6.922;2022-09-30T06:05:33;2.63;;;1.13;;
53253;SDS011;39148;53.332;6.922;2022-09-30T06:07:59;3.03;;;1.20;;
53253;SDS011;39148;53.332;6.922;2022-09-30T06:10:25;2.15;;;1.20;;
53253;SDS011;39148;53.332;6.922;2022-09-30T06:12:51;2.22;;;1.10;;
53253;SDS011;39148;53.332;6.922;2022-09-30T06:15:17;2.85;;;1.13;;
53253;SDS011;39148;53.332;6.922;2022-09-30T06:17:42;2.20;;;1.30;;
53253;SDS011;39148;53.332;6.922;2022-09-30T06:20:08;2.13;;;1.25;;
53253;SDS011;39148;53.332;6.922;2022-09-30T06:22:34;2.13;;;1.13;;
53253;SDS011;39148;53.332;6.922;2022-09-30T06:25:02;3.25;;;1.40;;
53253;SDS011;39148;53.332;6.922;2022-09-30T06:27:29;1.52;;;1.00;;
53253;SDS011;39148;53.332;6.922;2022-09-30T06:29:54;2.10;;;1.20;;
53253;SDS011;39148;53.332;6.922;2022-09-30T06:32:21;2.67;;;1.20;;
53253;SDS011;39148;53.332;6.922;2022-09-30T06:34:47;2.83;;;1.35;;
53253;SDS011;39148;53.332;6.922;2022-09-30T06:37:12;2.42;;;1.02;;
53253;SDS011;39148;53.332;6.922;2022-09-30T06:39:40;2.50;;;1.23;;
53253;SDS011;39148;53.332;6.922;2022-09-30T06:42:05;3.03;;;1.33;;
53253;SDS011;39148;53.332;6.922;2022-09-30T06:44:32;1.80;;;0.95;;
53253;SDS011;39148;53.332;6.922;2022-09-30T06:46:57;2.35;;;1.20;;
53253;SDS011;39148;53.332;6.922;2022-09-30T06:49:23;2.55;;;1.30;;
53253;SDS011;39148;53.332;6.922;2022-09-30T06:51:50;2.67;;;1.25;;
53253;SDS011;39148;53.332;6.922;2022-09-30T06:54:16;2.38;;;1.10;;
53253;SDS011;39148;53.332;6.922;2022-09-30T06:56:45;2.22;;;1.25;;
53253;SDS011;39148;53.332;6.922;2022-09-30T06:59:11;3.03;;;1.40;;
53253;SDS011;39148;53.332;6.922;2022-09-30T07:01:39;2.88;;;1.60;;
53253;SDS011;39148;53.332;6.922;2022-09-30T07:04:06;2.42;;;1.35;;
53253;SDS011;39148;53.332;6.922;2022-09-30T07:06:34;4.22;;;1.10;;
53253;SDS011;39148;53.332;6.922;2022-09-30T07:08:59;2.35;;;1.30;;
53253;SDS011;39148;53.332;6.922;2022-09-30T07:11:25;2.58;;;1.23;;
53253;SDS011;39148;53.332;6.922;2022-09-30T07:13:51;3.47;;;1.30;;
53253;SDS011;39148;53.332;6.922;2022-09-30T07:16:17;3.92;;;1.50;;
53253;SDS011;39148;53.332;6.922;2022-09-30T07:18:44;2.80;;;1.50;;
53253;SDS011;39148;53.332;6.922;2022-09-30T07:21:10;3.85;;;1.67;;
53253;SDS011;39148;53.332;6.922;2022-09-30T07:23:39;2.90;;;1.45;;
53253;SDS011;39148;53.332;6.922;2022-09-30T07:26:09;3.95;;;1.40;;
53253;SDS011;39148;53.332;6.922;2022-09-30T07:28:35;3.97;;;1.30;;
53253;SDS011;39148;53.332;6.922;2022-09-30T07:31:11;3.78;;;1.38;;
53253;SDS011;39148;53.332;6.922;2022-09-30T07:33:42;4.10;;;2.00;;
53253;SDS011;39148;53.332;6.922;2022-09-30T07:36:08;4.38;;;1.40;;
53253;SDS011;39148;53.332;6.922;2022-09-30T07:38:37;2.65;;;1.35;;
53253;SDS011;39148;53.332;6.922;2022-09-30T07:41:05;3.75;;;1.65;;
53253;SDS011;39148;53.332;6.922;2022-09-30T07:43:33;2.90;;;1.52;;
53253;SDS011;39148;53.332;6.922;2022-09-30T07:46:03;3.03;;;1.20;;
53253;SDS011;39148;53.332;6.922;2022-09-30T07:48:31;2.88;;;1.30;;
53253;SDS011;39148;53.332;6.922;2022-09-30T07:51:13;5.37;;;1.63;;
53253;SDS011;39148;53.332;6.922;2022-09-30T07:53:40;4.63;;;1.40;;
53253;SDS011;39148;53.332;6.922;2022-09-30T07:56:08;3.53;;;1.70;;
53253;SDS011;39148;53.332;6.922;2022-09-30T07:58:34;3.08;;;1.20;;
53253;SDS011;39148;53.332;6.922;2022-09-30T08:01:00;3.65;;;1.40;;
53253;SDS011;39148;53.332;6.922;2022-09-30T08:03:26;2.90;;;1.38;;
53253;SDS011;39148;53.332;6.922;2022-09-30T08:05:52;4.38;;;1.75;;
53253;SDS011;39148;53.332;6.922;2022-09-30T08:08:18;5.18;;;1.80;;
53253;SDS011;39148;53.332;6.922;2022-09-30T08:10:44;4.72;;;1.98;;
53253;SDS011;39148;53.332;6.922;2022-09-30T08:13:10;5.70;;;1.92;;
53253;SDS011;39148;53.332;6.922;2022-09-30T08:15:40;5.80;;;2.05;;
53253;SDS011;39148;53.332;6.922;2022-09-30T08:18:06;3.80;;;1.90;;
53253;SDS011;39148;53.332;6.922;2022-09-30T08:20:32;3.63;;;1.80;;
53253;SDS011;39148;53.332;6.922;2022-09-30T08:22:57;4.13;;;1.65;;
53253;SDS011;39148;53.332;6.922;2022-09-30T08:25:23;3.88;;;1.75;;
53253;SDS011;39148;53.332;6.922;2022-09-30T08:27:50;4.20;;;1.67;;
53253;SDS011;39148;53.332;6.922;2022-09-30T08:30:16;3.25;;;1.52;;
53253;SDS011;39148;53.332;6.922;2022-09-30T08:32:42;3.75;;;1.73;;
53253;SDS011;39148;53.332;6.922;2022-09-30T08:35:07;4.53;;;1.70;;
53253;SDS011;39148;53.332;6.922;2022-09-30T08:37:33;4.50;;;2.00;;
53253;SDS011;39148;53.332;6.922;2022-09-30T08:39:59;3.97;;;2.00;;
53253;SDS011;39148;53.332;6.922;2022-09-30T08:42:37;3.75;;;1.83;;
53253;SDS011;39148;53.332;6.922;2022-09-30T08:48:14;3.35;;;1.80;;
53253;SDS011;39148;53.332;6.922;2022-09-30T08:51:08;4.63;;;1.80;;
53253;SDS011;39148;53.332;6.922;2022-09-30T08:53:40;4.45;;;1.73;;
53253;SDS011;39148;53.332;6.922;2022-09-30T08:58:44;3.05;;;1.50;;
53253;SDS011;39148;53.332;6.922;2022-09-30T09:01:30;3.67;;;1.60;;
53253;SDS011;39148;53.332;6.922;2022-09-30T09:03:58;3.22;;;1.60;;
53253;SDS011;39148;53.332;6.922;2022-09-30T09:06:30;2.38;;;1.40;;
53253;SDS011;39148;53.332;6.922;2022-09-30T09:09:16;3.05;;;1.40;;
53253;SDS011;39148;53.332;6.922;2022-09-30T09:20:02;4.78;;;1.33;;
53253;SDS011;39148;53.332;6.922;2022-09-30T09:22:47;3.05;;;1.40;;
53253;SDS011;39148;53.332;6.922;2022-09-30T09:25:16;3.25;;;1.40;;
53253;SDS011;39148;53.332;6.922;2022-09-30T09:27:53;3.17;;;1.40;;
53253;SDS011;39148;53.332;6.922;2022-09-30T09:30:23;2.70;;;1.30;;
53253;SDS011;39148;53.332;6.922;2022-09-30T09:32:54;4.03;;;1.50;;
53253;SDS011;39148;53.332;6.922;2022-09-30T09:35:26;4.13;;;1.30;;
53253;SDS011;39148;53.332;6.922;2022-09-30T09:41:32;3.60;;;1.58;;
53253;SDS011;39148;53.332;6.922;2022-09-30T09:44:04;3.70;;;1.70;;
53253;SDS011;39148;53.332;6.922;2022-09-30T09:54:30;2.85;;;1.40;;
53253;SDS011;39148;53.332;6.922;2022-09-30T09:57:06;2.63;;;1.35;;
53253;SDS011;39148;53.332;6.922;2022-09-30T09:59:52;2.88;;;1.52;;
53253;SDS011;39148;53.332;6.922;2022-09-30T10:02:28;4.22;;;1.73;;
53253;SDS011;39148;53.332;6.922;2022-09-30T10:04:56;3.35;;;1.50;;
53253;SDS011;39148;53.332;6.922;2022-09-30T10:07:30;2.97;;;1.58;;
53253;SDS011;39148;53.332;6.922;2022-09-30T10:10:08;3.13;;;1.35;;
53253;SDS011;39148;53.332;6.922;2022-09-30T10:12:39;5.18;;;1.95;;
53253;SDS011;39148;53.332;6.922;2022-09-30T10:15:19;3.50;;;1.60;;
53253;SDS011;39148;53.332;6.922;2022-09-30T10:20:35;3.88;;;1.50;;
53253;SDS011;39148;53.332;6.922;2022-09-30T10:23:08;2.83;;;1.30;;
53253;SDS011;39148;53.332;6.922;2022-09-30T10:28:30;4.50;;;1.50;;
53253;SDS011;39148;53.332;6.922;2022-09-30T10:31:12;3.13;;;1.30;;
53253;SDS011;39148;53.332;6.922;2022-09-30T10:33:47;2.10;;;1.00;;
53253;SDS011;39148;53.332;6.922;2022-09-30T10:36:32;3.85;;;1.23;;
53253;SDS011;39148;53.332;6.922;2022-09-30T10:39:22;5.07;;;1.95;;
53253;SDS011;39148;53.332;6.922;2022-09-30T10:42:00;3.08;;;1.20;;
53253;SDS011;39148;53.332;6.922;2022-09-30T10:44:33;2.55;;;1.00;;
53253;SDS011;39148;53.332;6.922;2022-09-30T10:47:22;2.17;;;1.20;;
53253;SDS011;39148;53.332;6.922;2022-09-30T10:54:52;2.25;;;0.95;;
53253;SDS011;39148;53.332;6.922;2022-09-30T10:59:51;1.55;;;0.57;;
53253;SDS011;39148;53.332;6.922;2022-09-30T11:02:25;1.48;;;0.60;;
53253;SDS011;39148;53.332;6.922;2022-09-30T11:07:31;1.17;;;0.60;;
53253;SDS011;39148;53.332;6.922;2022-09-30T11:16:14;1.75;;;0.50;;
53253;SDS011;39148;53.332;6.922;2022-09-30T11:18:29;1.38;;;0.60;;
53253;SDS011;39148;53.332;6.922;2022-09-30T11:21:28;2.45;;;0.50;;
53253;SDS011;39148;53.332;6.922;2022-09-30T11:23:59;1.75;;;0.70;;
53253;SDS011;39148;53.332;6.922;2022-09-30T11:29:12;1.10;;;0.45;;
53253;SDS011;39148;53.332;6.922;2022-09-30T11:43:40;2.25;;;0.82;;
53253;SDS011;39148;53.332;6.922;2022-09-30T11:46:00;1.40;;;0.73;;
53253;SDS011;39148;53.332;6.922;2022-09-30T11:48:37;2.13;;;1.08;;
53253;SDS011;39148;53.332;6.922;2022-09-30T11:51:32;4.68;;;1.33;;
53253;SDS011;39148;53.332;6.922;2022-09-30T11:54:25;3.08;;;1.02;;
53253;SDS011;39148;53.332;6.922;2022-09-30T11:57:04;3.75;;;1.15;;
53253;SDS011;39148;53.332;6.922;2022-09-30T11:59:41;2.10;;;0.90;;
53253;SDS011;39148;53.332;6.922;2022-09-30T12:02:53;3.15;;;1.10;;
53253;SDS011;39148;53.332;6.922;2022-09-30T12:04:57;2.13;;;1.00;;
53253;SDS011;39148;53.332;6.922;2022-09-30T12:07:43;1.60;;;0.75;;
53253;SDS011;39148;53.332;6.922;2022-09-30T12:10:17;2.63;;;1.10;;
53253;SDS011;39148;53.332;6.922;2022-09-30T12:12:57;1.88;;;1.00;;
53253;SDS011;39148;53.332;6.922;2022-09-30T12:15:27;2.55;;;0.90;;
53253;SDS011;39148;53.332;6.922;2022-09-30T12:17:56;2.72;;;1.13;;
53253;SDS011;39148;53.332;6.922;2022-09-30T12:20:36;2.17;;;0.95;;
53253;SDS011;39148;53.332;6.922;2022-09-30T12:26:10;1.80;;;0.80;;
53253;SDS011;39148;53.332;6.922;2022-09-30T12:48:19;2.00;;;0.68;;
53253;SDS011;39148;53.332;6.922;2022-09-30T12:50:49;3.13;;;0.70;;
53253;SDS011;39148;53.332;6.922;2022-09-30T12:53:28;2.38;;;0.93;;
53253;SDS011;39148;53.332;6.922;2022-09-30T12:56:04;2.60;;;0.80;;
53253;SDS011;39148;53.332;6.922;2022-09-30T13:01:20;2.03;;;0.85;;
53253;SDS011;39148;53.332;6.922;2022-09-30T13:06:23;2.75;;;0.80;;
53253;SDS011;39148;53.332;6.922;2022-09-30T13:11:39;1.67;;;0.70;;
53253;SDS011;39148;53.332;6.922;2022-09-30T13:27:34;1.73;;;0.77;;
53253;SDS011;39148;53.332;6.922;2022-09-30T13:32:39;2.10;;;0.80;;
53253;SDS011;39148;53.332;6.922;2022-09-30T13:40:43;2.30;;;0.73;;
53253;SDS011;39148;53.332;6.922;2022-09-30T13:46:12;1.95;;;0.88;;
53253;SDS011;39148;53.332;6.922;2022-09-30T13:49:00;1.65;;;0.80;;
53253;SDS011;39148;53.332;6.922;2022-09-30T13:51:41;1.90;;;0.70;;
53253;SDS011;39148;53.332;6.922;2022-09-30T13:57:00;1.70;;;0.70;;
53253;SDS011;39148;53.332;6.922;2022-09-30T14:03:01;1.60;;;0.80;;
53253;SDS011;39148;53.332;6.922;2022-09-30T14:14:22;2.42;;;1.02;;
53253;SDS011;39148;53.332;6.922;2022-09-30T14:19:39;1.90;;;0.80;;
53253;SDS011;39148;53.332;6.922;2022-09-30T14:22:36;2.63;;;1.23;;
53253;SDS011;39148;53.332;6.922;2022-09-30T14:25:02;2.92;;;1.30;;
53253;SDS011;39148;53.332;6.922;2022-09-30T14:30:13;2.65;;;1.30;;
53253;SDS011;39148;53.332;6.922;2022-09-30T14:35:34;3.15;;;1.50;;
53253;SDS011;39148;53.332;6.922;2022-09-30T14:38:05;2.63;;;1.30;;
53253;SDS011;39148;53.332;6.922;2022-09-30T14:40:34;2.85;;;1.63;;
53253;SDS011;39148;53.332;6.922;2022-09-30T14:43:11;3.63;;;1.92;;
53253;SDS011;39148;53.332;6.922;2022-09-30T14:45:42;3.22;;;1.50;;
53253;SDS011;39148;53.332;6.922;2022-09-30T14:48:13;4.90;;;1.90;;
53253;SDS011;39148;53.332;6.922;2022-09-30T14:50:45;3.20;;;2.03;;
53253;SDS011;39148;53.332;6.922;2022-09-30T14:53:26;3.60;;;1.88;;
53253;SDS011;39148;53.332;6.922;2022-09-30T14:55:55;4.18;;;1.90;;
53253;SDS011;39148;53.332;6.922;2022-09-30T14:58:22;3.78;;;1.90;;
53253;SDS011;39148;53.332;6.922;2022-09-30T15:01:04;3.15;;;1.92;;
53253;SDS011;39148;53.332;6.922;2022-09-30T15:03:41;3.20;;;1.83;;
53253;SDS011;39148;53.332;6.922;2022-09-30T15:06:19;4.40;;;2.50;;
53253;SDS011;39148;53.332;6.922;2022-09-30T15:08:50;4.63;;;2.53;;
53253;SDS011;39148;53.332;6.922;2022-09-30T15:11:23;5.25;;;2.88;;
53253;SDS011;39148;53.332;6.922;2022-09-30T15:13:57;5.30;;;2.90;;
53253;SDS011;39148;53.332;6.922;2022-09-30T15:16:45;4.85;;;2.90;;
53253;SDS011;39148;53.332;6.922;2022-09-30T15:19:17;4.07;;;2.80;;
53253;SDS011;39148;53.332;6.922;2022-09-30T15:21:45;4.53;;;3.10;;
53253;SDS011;39148;53.332;6.922;2022-09-30T15:24:13;5.10;;;3.22;;
53253;SDS011;39148;53.332;6.922;2022-09-30T15:26:41;4.78;;;2.80;;
53253;SDS011;39148;53.332;6.922;2022-09-30T15:29:14;5.65;;;3.47;;
53253;SDS011;39148;53.332;6.922;2022-09-30T15:31:44;5.57;;;3.15;;
53253;SDS011;39148;53.332;6.922;2022-09-30T15:34:23;4.50;;;3.05;;
53253;SDS011;39148;53.332;6.922;2022-09-30T15:37:00;5.28;;;3.20;;
53253;SDS011;39148;53.332;6.922;2022-09-30T15:39:30;4.82;;;3.47;;
53253;SDS011;39148;53.332;6.922;2022-09-30T15:42:32;4.45;;;3.15;;
53253;SDS011;39148;53.332;6.922;2022-09-30T15:45:00;5.15;;;3.40;;
53253;SDS011;39148;53.332;6.922;2022-09-30T15:47:52;4.80;;;3.50;;
53253;SDS011;39148;53.332;6.922;2022-09-30T15:50:34;5.55;;;3.67;;
53253;SDS011;39148;53.332;6.922;2022-09-30T15:53:02;5.10;;;3.70;;
53253;SDS011;39148;53.332;6.922;2022-09-30T15:55:37;5.38;;;3.88;;
53253;SDS011;39148;53.332;6.922;2022-09-30T16:03:46;5.95;;;3.63;;
53253;SDS011;39148;53.332;6.922;2022-09-30T16:06:22;5.40;;;3.60;;
53253;SDS011;39148;53.332;6.922;2022-09-30T16:09:00;5.18;;;4.03;;
53253;SDS011;39148;53.332;6.922;2022-09-30T16:11:34;5.70;;;3.90;;
53253;SDS011;39148;53.332;6.922;2022-09-30T16:14:06;5.88;;;4.20;;
53253;SDS011;39148;53.332;6.922;2022-09-30T16:16:34;6.15;;;3.95;;
53253;SDS011;39148;53.332;6.922;2022-09-30T16:19:02;5.30;;;3.75;;
53253;SDS011;39148;53.332;6.922;2022-09-30T16:21:45;5.97;;;3.97;;
53253;SDS011;39148;53.332;6.922;2022-09-30T16:26:50;7.05;;;4.28;;
53253;SDS011;39148;53.332;6.922;2022-09-30T16:29:17;6.22;;;4.45;;
53253;SDS011;39148;53.332;6.922;2022-09-30T16:31:43;6.15;;;4.35;;
53253;SDS011;39148;53.332;6.922;2022-09-30T16:34:26;5.45;;;4.30;;
53253;SDS011;39148;53.332;6.922;2022-09-30T16:36:54;5.75;;;3.70;;
53253;SDS011;39148;53.332;6.922;2022-09-30T16:39:28;6.32;;;3.80;;
53253;SDS011;39148;53.332;6.922;2022-09-30T16:41:53;5.40;;;3.97;;
53253;SDS011;39148;53.332;6.922;2022-09-30T16:44:19;5.80;;;4.07;;
53253;SDS011;39148;53.332;6.922;2022-09-30T16:46:48;5.13;;;3.92;;
53253;SDS011;39148;53.332;6.922;2022-09-30T16:49:18;5.35;;;4.22;;
53253;SDS011;39148;53.332;6.922;2022-09-30T16:51:44;6.90;;;4.40;;
53253;SDS011;39148;53.332;6.922;2022-09-30T16:54:10;6.07;;;4.05;;
53253;SDS011;39148;53.332;6.922;2022-09-30T16:56:37;6.32;;;4.30;;
53253;SDS011;39148;53.332;6.922;2022-09-30T16:59:03;6.68;;;4.22;;
53253;SDS011;39148;53.332;6.922;2022-09-30T17:01:31;5.40;;;4.22;;
53253;SDS011;39148;53.332;6.922;2022-09-30T17:03:57;6.30;;;4.53;;
53253;SDS011;39148;53.332;6.922;2022-09-30T17:06:29;7.38;;;4.60;;
53253;SDS011;39148;53.332;6.922;2022-09-30T17:08:56;6.68;;;4.13;;
53253;SDS011;39148;53.332;6.922;2022-09-30T17:11:25;7.05;;;4.63;;
53253;SDS011;39148;53.332;6.922;2022-09-30T17:13:55;7.20;;;4.17;;
53253;SDS011;39148;53.332;6.922;2022-09-30T17:16:21;5.90;;;4.28;;
53253;SDS011;39148;53.332;6.922;2022-09-30T17:18:48;6.72;;;4.45;;
53253;SDS011;39148;53.332;6.922;2022-09-30T17:21:18;8.40;;;4.57;;
53253;SDS011;39148;53.332;6.922;2022-09-30T17:23:44;9.38;;;4.65;;
53253;SDS011;39148;53.332;6.922;2022-09-30T17:26:10;6.28;;;4.30;;
53253;SDS011;39148;53.332;6.922;2022-09-30T17:28:36;6.82;;;4.70;;
53253;SDS011;39148;53.332;6.922;2022-09-30T17:31:02;6.03;;;3.83;;
53253;SDS011;39148;53.332;6.922;2022-09-30T17:33:31;6.32;;;4.22;;
53253;SDS011;39148;53.332;6.922;2022-09-30T17:36:00;6.22;;;4.40;;
53253;SDS011;39148;53.332;6.922;2022-09-30T17:38:27;5.97;;;4.30;;
53253;SDS011;39148;53.332;6.922;2022-09-30T17:40:53;7.18;;;4.53;;
53253;SDS011;39148;53.332;6.922;2022-09-30T17:43:38;6.07;;;4.47;;
53253;SDS011;39148;53.332;6.922;2022-09-30T17:46:04;7.75;;;4.65;;
53253;SDS011;39148;53.332;6.922;2022-09-30T17:48:30;7.05;;;4.10;;
53253;SDS011;39148;53.332;6.922;2022-09-30T17:50:56;6.88;;;4.03;;
53253;SDS011;39148;53.332;6.922;2022-09-30T17:53:22;5.78;;;3.90;;
53253;SDS011;39148;53.332;6.922;2022-09-30T17:55:59;5.40;;;3.45;;
53253;SDS011;39148;53.332;6.922;2022-09-30T17:58:34;6.85;;;3.97;;
53253;SDS011;39148;53.332;6.922;2022-09-30T18:01:04;6.72;;;3.80;;
53253;SDS011;39148;53.332;6.922;2022-09-30T18:03:33;5.38;;;4.00;;
53253;SDS011;39148;53.332;6.922;2022-09-30T18:06:02;5.80;;;3.97;;
53253;SDS011;39148;53.332;6.922;2022-09-30T18:08:28;7.40;;;4.10;;
53253;SDS011;39148;53.332;6.922;2022-09-30T18:10:54;4.90;;;3.50;;
53253;SDS011;39148;53.332;6.922;2022-09-30T18:13:22;5.40;;;3.58;;
53253;SDS011;39148;53.332;6.922;2022-09-30T18:15:57;5.95;;;3.53;;
53253;SDS011;39148;53.332;6.922;2022-09-30T18:18:28;5.93;;;3.75;;
53253;SDS011;39148;53.332;6.922;2022-09-30T18:20:54;5.50;;;3.38;;
53253;SDS011;39148;53.332;6.922;2022-09-30T18:23:20;5.45;;;3.72;;
53253;SDS011;39148;53.332;6.922;2022-09-30T18:25:45;5.38;;;3.10;;
53253;SDS011;39148;53.332;6.922;2022-09-30T18:28:14;4.95;;;3.13;;
53253;SDS011;39148;53.332;6.922;2022-09-30T18:30:40;5.75;;;3.47;;
53253;SDS011;39148;53.332;6.922;2022-09-30T18:33:07;7.65;;;3.30;;
53253;SDS011;39148;53.332;6.922;2022-09-30T18:35:34;5.78;;;3.80;;
53253;SDS011;39148;53.332;6.922;2022-09-30T18:38:02;6.15;;;3.17;;
53253;SDS011;39148;53.332;6.922;2022-09-30T18:40:29;5.35;;;3.53;;
53253;SDS011;39148;53.332;6.922;2022-09-30T18:43:00;4.43;;;3.08;;
53253;SDS011;39148;53.332;6.922;2022-09-30T18:45:29;5.00;;;3.60;;
53253;SDS011;39148;53.332;6.922;2022-09-30T18:47:58;5.72;;;3.55;;